首页
METAR-TAF:

METAR-TAF

机场 :

Driggs, 爱达荷州, 美国

纬度: 43-44-33N, 经度: 111-05-51W, 海拔: 1899米

当前天气观测

该预报发布于45分钟前的20:56 UTC
风速4节,风向
温度 4°C
湿度 52%
气压 1016 hPa
能見度: 16.1公里
少量云层高于3600英尺
阴天层高于6500英尺

METAR: KDIJ 292056Z AUTO 35004KT 10SM FEW036 OVC065 04/M05 A3001 RMK AO2 SLP176 T00441050 58006

时间: 15:41 (21:41 UTC)

预报

该预报发布于4小时和6分钟前的17:35 UTC
预报有效从29日的 18点(UTC)到 30日的 18点(UTC)
风速10节,风向
能見度: 10公里
散云层高于4000英尺
阴天层高于8000英尺
附近有阵雨
从 30日的 0400点(UTC)
风速6节,风向南转南东
能見度: 10公里
散云层高于4000英尺
阴天层高于5000英尺
附近有阵雨
从 30日的 1700点(UTC)
风速8节,风向
能見度: 10公里
阴天层高于3000英尺
小阵雨, 雪

TAF: KDIJ 291735Z 2918/3018 19010KT P6SM VCSH SCT040 OVC080 FM300400 16006KT P6SM VCSH SCT040 OVC050 FM301700 19008KT P6SM -SHRASN OVC030 AMD LTD TO CLD VIS AND WIND

超过4000个机场的气象观测和天气预报(METAR&TAF报告)。

可查询的气象台以黄色和红色小点在地图上表示。

将鼠标移到小点上方,可查看气象台名称。

然后点击查看天气观测和预报。

如需切换地图:点击带黑十字的绿色按钮放大地图;点击带横线的绿色按钮缩小地图;或者点击绿色箭头查看邻近地区的地图。


METAR-TAF: